NCAR-RAP Real-Time Weather Data

Output produced by METARs form (19 June 2019  10:40 UTC)
found at http://weather.rap.ucar.edu/surface/
 
KCAK 190951Z 00000KT 1/4SM R23/1800V2000FT FG VV002 20/18 A2984 RMK AO2 SLP096 T02000183 $
KCAK 190851Z 00000KT 1/4SM R23/1600V1800FT FG VV002 20/18 A2984 RMK AO2 TWR VIS 1/4 SLP097 T02000183 56013 $
KCAK 190751Z 14004KT 1/4SM R23/1200V1400FT FG VV002 20/18 A2984 RMK AO2 TWR VIS 1/4 SLP097 T02000183 $
KCAK 190710Z 12004KT 1/4SM R23/1400V5500FT FG VV003 20/18 A2985 RMK AO2 TWR VIS 1 T02000183 $
KCAK 190651Z 06003KT 1SM R23/3500VP6000FT BR OVC003 20/18 A2985 RMK AO2 SLP101 T02000183 $
KCAK 190551Z 06003KT 1/4SM R23/1200V1400FT FG VV003 20/19 A2988 RMK AO2 SLP110 T02000189 10228 20183 56006 $
KCAK 190535Z 05004KT 1/4SM R23/1000V1400FT FG VV003 20/18 A2988 RMK AO2 T02000183 $
KCAK 190521Z 01003KT 1/4SM R23/1400V2000FT BR SCT004 BKN014 OVC050 20/18 A2989 RMK AO2 SFC VIS 2 T02000183 $
KCAK 190512Z 02004KT 2SM R23/1800V2000FT BR FEW004 BKN014 OVC050 19/18 A2989 RMK AO2 T01940178 $
KCAK 190451Z 04003KT 4SM R23/1400VP6000FT BR FEW014 SCT050 OVC150 19/18 A2988 RMK AO2 SLP112 T01940178 402560183 $
KCAK 190351Z 00000KT 9SM FEW034 SCT150 20/17 A2989 RMK AO2 SLP113 T02000172 $
KCAK 190251Z 00000KT 7SM SCT008 BKN036 BKN150 21/19 A2990 RMK AO2 SLP117 T02110194 53002 $
KCAK 190151Z 21003KT 5SM BR FEW008 SCT070 BKN200 21/19 A2990 RMK AO2 SLP117 T02110189 $
KCAK 190051Z 00000KT 9SM BKN070 BKN150 22/19 A2989 RMK AO2 SLP113 T02220194 $
KCAK 182351Z 00000KT 9SM SCT010 SCT035 BKN070 OVC150 23/20 A2989 RMK AO2 SLP115 60005 T02280200 10256 20217 55006 $
KCAK 182251Z 22003KT 10SM FEW015 BKN035 OVC070 23/19 A2989 RMK AO2 SLP113 T02280194 $
KCAK 182151Z 22003KT 10SM SCT015 BKN035 OVC065 23/19 A2990 RMK AO2 RAB2057E29 SLP116 P0005 T02280194 $
KCAK 182141Z 22004KT 10SM FEW015 BKN030 OVC060 22/19 A2990 RMK AO2 RAB2057E29 P0005 T02220189 $
KCAK 182051Z 22008KT 10SM FEW008 BKN021 OVC042 22/19 A2991 RMK AO2 SLP121 T02170189 57012 $
KCAK 181951Z 34004KT 10SM BKN021 BKN042 OVC130 26/18 A2992 RMK AO2 SLP124 T02560183 $
KCAK 181851Z 31003KT 8SM BKN021 BKN042 OVC150 24/18 A2993 RMK AO2 SLP126 T02440183 $
KCAK 181751Z 29004KT 8SM BKN016 BKN028 OVC048 24/18 A2995 RMK AO2 SLP132 60000 T02390183 10239 20194 58009 $
KCAK 181714Z 03004KT 6SM HZ BKN016 OVC050 23/19 A2996 RMK AO2 T02330189 $
KCAK 181651Z 02006KT 7SM BKN012 OVC040 22/18 A2996 RMK AO2 SLP138 T02220183 $
KCAK 181627Z 32004KT 7SM BKN010 OVC048 23/18 A2997 RMK AO2 T02280183 $
KCAK 181551Z 00000KT 7SM OVC007 22/18 A2997 RMK AO2 SLP142 T02170183 $
KCAK 181451Z 00000KT 5SM HZ BKN007 OVC013 21/18 A2997 RMK AO2 SLP143 60000 T02060178 50002
KCAK 181351Z 00000KT 3SM HZ BKN008 OVC016 21/17 A2998 RMK AO2 SFC VIS 5 DZE08 SLP147 P0000 T02060172
KCAK 181332Z 00000KT 3SM HZ BKN006 OVC018 21/17 A2998 RMK AO2 DZE08 P0000 T02060172
KCAK 181251Z 01003KT 3SM -DZ BR OVC004 19/18 A2998 RMK AO2 RAE04DZB33 SLP144 P0000 T01940178